createdAt,value
2019-02-22T00:00:22.727Z,45.57
2019-02-22T00:02:51.137Z,40.07
2019-02-22T00:05:19.484Z,46.13
2019-02-22T00:07:47.830Z,40.23
2019-02-22T00:10:16.485Z,45.03
2019-02-22T00:12:44.922Z,44.37
2019-02-22T00:15:14.081Z,43.33
2019-02-22T00:17:42.398Z,39.80
2019-02-22T00:20:11.203Z,48.47
2019-02-22T00:22:39.543Z,37.67
2019-02-22T00:25:07.932Z,42.90
2019-02-22T00:27:36.330Z,39.55
2019-02-22T00:30:06.303Z,42.90
2019-02-22T00:32:34.661Z,43.67
2019-02-22T00:35:03.903Z,45.52
2019-02-22T00:37:32.530Z,42.73
2019-02-22T00:42:35.124Z,37.27
2019-02-22T00:45:03.598Z,38.80
2019-02-22T00:47:31.932Z,45.47
2019-02-22T00:50:00.332Z,38.03
2019-02-22T00:52:28.740Z,43.90
2019-02-22T00:54:57.082Z,42.00
2019-02-22T00:57:25.465Z,43.97
2019-02-22T00:59:53.919Z,43.90
2019-02-22T01:02:22.303Z,43.93
2019-02-22T01:04:51.018Z,45.12
2019-02-22T01:07:20.416Z,45.43
2019-02-22T01:09:48.800Z,47.00
2019-02-22T01:12:17.119Z,44.67
2019-02-22T01:14:45.478Z,43.90
2019-02-22T01:17:13.898Z,47.50
2019-02-22T01:19:42.261Z,49.87
2019-02-22T01:22:11.082Z,50.63
2019-02-22T01:24:39.437Z,53.73
2019-02-22T01:27:07.852Z,49.30
2019-02-22T01:29:36.223Z,51.90
2019-02-22T01:32:04.555Z,49.90
2019-02-22T01:34:32.973Z,48.43
2019-02-22T01:37:01.308Z,52.97
2019-02-22T01:39:29.666Z,45.17
2019-02-22T01:41:58.001Z,50.63
2019-02-22T01:44:26.360Z,50.10
2019-02-22T01:46:54.680Z,45.45
2019-02-22T01:49:23.035Z,51.80
2019-02-22T01:51:51.420Z,46.60
2019-02-22T01:54:19.774Z,60.17
2019-02-22T01:56:48.139Z,49.43
2019-02-22T01:59:16.506Z,54.33
2019-02-22T02:01:44.948Z,45.80
2019-02-22T02:04:13.362Z,55.07
2019-02-22T02:06:41.848Z,49.67
2019-02-22T02:09:10.899Z,46.57
2019-02-22T02:11:39.232Z,53.30
2019-02-22T02:14:07.575Z,54.67
2019-02-22T02:16:35.934Z,48.67
2019-02-22T02:19:04.300Z,49.00
2019-02-22T02:21:32.756Z,47.40
2019-02-22T02:24:01.130Z,42.40
2019-02-22T02:26:29.544Z,49.63
2019-02-22T02:28:57.872Z,51.00
2019-02-22T02:31:26.258Z,48.07
2019-02-22T02:33:54.733Z,43.87
2019-02-22T02:36:23.066Z,47.40
2019-02-22T02:38:51.523Z,51.07
2019-02-22T02:41:19.834Z,42.73
2019-02-22T02:43:48.188Z,47.23
2019-02-22T02:46:16.541Z,48.07
2019-02-22T02:48:44.891Z,47.07
2019-02-22T02:51:13.503Z,43.80
2019-02-22T02:53:41.869Z,39.70
2019-02-22T02:56:10.632Z,40.63
2019-02-22T02:58:39.301Z,44.98
2019-02-22T03:01:07.719Z,46.53
2019-02-22T03:03:36.105Z,43.40
2019-02-22T03:06:06.503Z,44.10
2019-02-22T03:08:35.293Z,44.60
2019-02-22T03:11:03.761Z,45.87
2019-02-22T03:13:32.187Z,46.35
2019-02-22T03:16:00.564Z,47.37
2019-02-22T03:18:28.902Z,48.57
2019-02-22T03:20:57.230Z,42.50
2019-02-22T03:23:25.594Z,46.43
2019-02-22T03:25:53.949Z,41.33
2019-02-22T03:28:22.411Z,44.40
2019-02-22T03:30:50.789Z,45.73
2019-02-22T03:33:19.224Z,46.48
2019-02-22T03:35:47.685Z,46.90
2019-02-22T03:38:16.021Z,44.13
2019-02-22T03:40:44.447Z,44.35
2019-02-22T03:43:12.816Z,41.37
2019-02-22T03:45:41.203Z,40.67
2019-02-22T03:48:09.984Z,43.53
2019-02-22T03:50:38.337Z,42.73
2019-02-22T03:53:10.590Z,35.63
2019-02-22T03:55:38.967Z,34.67
2019-02-22T03:58:07.379Z,35.38
2019-02-22T04:00:36.739Z,47.13
2019-02-22T04:03:05.180Z,35.93
2019-02-22T04:05:33.572Z,36.13
2019-02-22T04:08:01.914Z,37.50
2019-02-22T04:10:30.335Z,34.20
2019-02-22T04:12:58.682Z,36.30
2019-02-22T04:15:27.048Z,33.10
2019-02-22T04:17:55.394Z,29.07
2019-02-22T04:20:23.746Z,34.00
2019-02-22T04:22:52.081Z,34.27
2019-02-22T04:25:20.543Z,35.48
2019-02-22T04:27:49.016Z,33.17
2019-02-22T04:30:17.555Z,27.20
2019-02-22T04:32:45.922Z,29.55
2019-02-22T04:35:14.777Z,28.03
2019-02-22T04:37:43.206Z,30.43
2019-02-22T04:40:12.379Z,29.40
2019-02-22T04:42:40.742Z,30.05
2019-02-22T04:45:09.391Z,28.03
2019-02-22T04:47:37.737Z,31.33
2019-02-22T04:50:06.711Z,31.20
2019-02-22T04:52:35.061Z,27.93
2019-02-22T04:55:03.492Z,26.27
2019-02-22T04:57:31.895Z,25.23
2019-02-22T05:00:00.579Z,24.73
2019-02-22T05:02:28.943Z,24.93
2019-02-22T05:04:57.289Z,23.50
2019-02-22T05:07:25.653Z,23.75
2019-02-22T05:09:53.995Z,27.02
2019-02-22T05:12:22.364Z,26.23
2019-02-22T05:14:50.708Z,26.05
2019-02-22T05:17:19.104Z,24.67
2019-02-22T05:19:47.425Z,22.67
2019-02-22T05:22:15.801Z,23.73
2019-02-22T05:24:44.141Z,23.80
2019-02-22T05:27:13.523Z,21.67
2019-02-22T05:29:41.842Z,22.07
2019-02-22T05:32:10.892Z,25.45
2019-02-22T05:34:39.213Z,20.03
2019-02-22T05:37:07.590Z,24.50
2019-02-22T05:39:35.945Z,22.83
2019-02-22T05:42:04.283Z,24.77
2019-02-22T05:44:32.633Z,21.90
2019-02-22T05:47:00.988Z,21.73
2019-02-22T05:49:29.435Z,23.63
2019-02-22T05:51:57.960Z,24.17
2019-02-22T05:54:26.451Z,23.90
2019-02-22T05:56:55.338Z,23.25
2019-02-22T05:59:23.941Z,24.23
2019-02-22T06:01:52.399Z,23.47
2019-02-22T06:04:20.958Z,21.83
2019-02-22T06:06:49.377Z,22.40
2019-02-22T06:09:17.751Z,20.95
2019-02-22T06:11:46.317Z,23.60
2019-02-22T06:14:14.648Z,20.12
2019-02-22T06:16:44.884Z,19.92
2019-02-22T06:19:14.137Z,20.70
2019-02-22T06:21:42.473Z,18.30
2019-02-22T06:24:10.836Z,18.73
2019-02-22T06:26:39.237Z,16.87
2019-02-22T06:29:07.933Z,21.00
2019-02-22T06:31:36.760Z,22.23
2019-02-22T06:34:05.214Z,22.00
2019-02-22T06:36:33.559Z,20.52
2019-02-22T06:39:01.922Z,18.93
2019-02-22T06:41:30.331Z,19.50
2019-02-22T06:43:58.679Z,16.97
2019-02-22T06:46:27.072Z,22.40
2019-02-22T06:48:55.417Z,20.57
2019-02-22T06:51:23.883Z,24.70
2019-02-22T06:53:52.806Z,20.40
2019-02-22T06:56:21.485Z,19.20
2019-02-22T06:58:51.669Z,20.37
2019-02-22T07:01:20.045Z,18.87
2019-02-22T07:03:48.362Z,21.17
2019-02-22T07:06:16.722Z,18.07
2019-02-22T07:08:45.067Z,18.80
2019-02-22T07:11:16.048Z,20.20
2019-02-22T07:13:44.404Z,21.60
2019-02-22T07:16:12.757Z,16.82
2019-02-22T07:18:41.134Z,16.93
2019-02-22T07:21:09.733Z,19.80
2019-02-22T07:23:38.122Z,23.27
2019-02-22T07:26:06.658Z,21.80
2019-02-22T07:28:35.019Z,18.83
2019-02-22T07:31:03.376Z,20.93
2019-02-22T07:33:31.721Z,19.30
2019-02-22T07:36:00.048Z,18.80
2019-02-22T07:38:29.037Z,18.95
2019-02-22T07:40:57.365Z,18.20
2019-02-22T07:43:25.708Z,19.60
2019-02-22T07:45:54.068Z,17.33
2019-02-22T07:48:22.426Z,18.33
2019-02-22T07:50:57.427Z,23.27
2019-02-22T07:53:21.236Z,18.05
2019-02-22T07:55:49.577Z,20.90
2019-02-22T07:58:18.001Z,16.43
2019-02-22T08:00:46.378Z,14.80
2019-02-22T08:03:14.750Z,15.03
2019-02-22T08:05:43.073Z,14.20
2019-02-22T08:08:11.454Z,14.93
2019-02-22T08:10:39.791Z,15.50
2019-02-22T08:13:19.184Z,13.10
2019-02-22T08:15:39.280Z,14.00
2019-02-22T08:18:07.933Z,14.30
2019-02-22T08:20:36.251Z,10.70
2019-02-22T08:23:04.601Z,13.00
2019-02-22T08:25:33.001Z,17.30
2019-02-22T08:28:01.414Z,11.37
2019-02-22T08:30:29.823Z,10.77
2019-02-22T08:32:58.162Z,9.77
2019-02-22T08:35:26.626Z,12.15
2019-02-22T08:37:54.948Z,9.60
2019-02-22T08:40:23.310Z,10.37
2019-02-22T08:42:51.685Z,13.73
2019-02-22T08:45:20.072Z,10.83
2019-02-22T08:47:48.398Z,10.15
2019-02-22T08:50:16.803Z,12.77
2019-02-22T08:52:45.156Z,10.97
2019-02-22T08:55:13.518Z,12.53
2019-02-22T08:57:41.860Z,10.70
2019-02-22T09:00:12.409Z,10.53
2019-02-22T09:02:40.793Z,10.63
2019-02-22T09:05:10.002Z,9.30
2019-02-22T09:07:38.346Z,11.53
2019-02-22T09:10:10.742Z,9.90
2019-02-22T09:12:39.101Z,9.10
2019-02-22T09:15:09.657Z,8.70
2019-02-22T09:17:37.988Z,11.33
2019-02-22T09:20:11.112Z,8.37
2019-02-22T09:22:39.445Z,8.57
2019-02-22T09:25:08.111Z,9.80
2019-02-22T09:27:36.462Z,5.67
2019-02-22T09:30:08.224Z,5.60
2019-02-22T09:32:36.562Z,5.00
2019-02-22T09:35:08.100Z,6.80
2019-02-22T09:37:36.487Z,6.20
2019-02-22T09:40:08.252Z,8.23
2019-02-22T09:42:36.622Z,4.42
2019-02-22T09:45:08.052Z,4.07
2019-02-22T09:47:36.385Z,5.30
2019-02-22T09:50:09.553Z,6.93
2019-02-22T09:52:37.897Z,4.65
2019-02-22T09:55:09.006Z,4.60
2019-02-22T09:57:37.559Z,5.30
2019-02-22T10:00:10.418Z,3.50
2019-02-22T10:02:38.821Z,4.37
2019-02-22T10:05:09.468Z,4.33
2019-02-22T10:07:37.829Z,4.63
2019-02-22T10:10:09.514Z,3.93
2019-02-22T10:12:37.858Z,5.20
2019-02-22T10:15:08.117Z,4.37
2019-02-22T10:17:36.458Z,4.67
2019-02-22T10:20:06.481Z,3.70
2019-02-22T10:22:34.860Z,4.07
2019-02-22T10:25:03.555Z,4.33
2019-02-22T10:27:31.963Z,2.87
2019-02-22T10:30:00.300Z,3.67
2019-02-22T10:32:28.636Z,4.37
2019-02-22T10:34:56.998Z,4.33
2019-02-22T10:37:25.310Z,4.30
2019-02-22T10:39:53.652Z,3.60
2019-02-22T10:42:21.987Z,3.02
2019-02-22T10:44:50.321Z,7.43
2019-02-22T10:47:18.646Z,3.80
2019-02-22T10:49:47.119Z,2.93
2019-02-22T10:52:15.891Z,4.30
2019-02-22T10:54:44.271Z,3.53
2019-02-22T10:57:12.603Z,5.20
2019-02-22T10:59:40.981Z,3.60
2019-02-22T11:02:09.394Z,4.53
2019-02-22T11:04:37.745Z,3.40
2019-02-22T11:07:06.186Z,3.97
2019-02-22T11:09:34.527Z,3.37
2019-02-22T11:12:02.899Z,2.70
2019-02-22T11:14:31.295Z,4.23
2019-02-22T11:16:59.623Z,3.83
2019-02-22T11:19:27.988Z,3.50
2019-02-22T11:21:56.332Z,4.00
2019-02-22T11:24:24.660Z,4.13
2019-02-22T11:26:53.065Z,3.93
2019-02-22T11:29:21.427Z,4.10
2019-02-22T11:31:49.765Z,4.08
2019-02-22T11:34:18.117Z,4.50
2019-02-22T11:36:46.472Z,3.93
2019-02-22T11:39:14.820Z,5.20
2019-02-22T11:41:43.169Z,3.73
2019-02-22T11:44:11.515Z,6.77
2019-02-22T11:46:39.875Z,4.23
2019-02-22T11:49:08.545Z,4.25
2019-02-22T11:51:36.879Z,3.90
2019-02-22T11:54:05.253Z,7.03
2019-02-22T11:56:33.685Z,5.33
2019-02-22T11:59:02.001Z,6.08
2019-02-22T12:01:30.458Z,4.77
2019-02-22T12:03:58.865Z,4.33
2019-02-22T12:06:27.209Z,5.65
2019-02-22T12:08:55.541Z,3.13
2019-02-22T12:11:23.905Z,4.17
2019-02-22T12:13:52.227Z,6.63
2019-02-22T12:16:20.623Z,8.40
2019-02-22T12:18:49.029Z,3.67
2019-02-22T12:21:17.378Z,4.70
2019-02-22T12:23:45.738Z,4.80
2019-02-22T12:26:14.258Z,5.20
2019-02-22T12:28:42.604Z,7.33
2019-02-22T12:31:10.939Z,5.58
2019-02-22T12:33:39.334Z,6.77
2019-02-22T12:36:09.637Z,5.00
2019-02-22T12:38:38.210Z,6.40
2019-02-22T12:41:06.870Z,5.53
2019-02-22T12:43:35.206Z,6.20
2019-02-22T12:46:03.559Z,5.60
2019-02-22T12:48:31.971Z,5.53
2019-02-22T12:51:00.375Z,4.67
2019-02-22T12:53:28.716Z,5.87
2019-02-22T12:55:57.155Z,6.00
2019-02-22T12:58:25.562Z,8.15
2019-02-22T13:00:53.917Z,8.87
2019-02-22T13:03:22.283Z,5.73
2019-02-22T13:05:50.597Z,7.03
2019-02-22T13:08:18.954Z,5.83
2019-02-22T13:10:47.305Z,8.53
2019-02-22T13:13:15.909Z,5.00
2019-02-22T13:15:44.196Z,6.77
2019-02-22T13:18:12.680Z,5.53
2019-02-22T13:20:41.133Z,6.80
2019-02-22T13:23:10.343Z,7.40
2019-02-22T13:25:38.737Z,8.13
2019-02-22T13:28:07.400Z,4.70
2019-02-22T13:30:35.698Z,8.93
2019-02-22T13:33:04.065Z,6.42
2019-02-22T13:35:32.438Z,6.70
2019-02-22T13:38:00.785Z,6.67
2019-02-22T13:40:29.143Z,7.10
2019-02-22T13:42:57.499Z,7.20
2019-02-22T13:45:27.120Z,6.90
2019-02-22T13:47:55.751Z,9.98
2019-02-22T13:50:24.234Z,6.62
2019-02-22T13:52:52.798Z,8.60
2019-02-22T13:55:21.120Z,9.80
2019-02-22T13:57:49.480Z,6.70
2019-02-22T14:00:18.842Z,6.00
2019-02-22T14:02:47.289Z,7.40
2019-02-22T14:05:15.732Z,4.80
2019-02-22T14:07:50.658Z,5.13
2019-02-22T14:10:19.478Z,6.25
2019-02-22T14:12:47.878Z,5.53
2019-02-22T14:15:18.665Z,9.33
2019-02-22T14:17:46.623Z,8.93
2019-02-22T14:20:14.974Z,7.47
2019-02-22T14:22:43.285Z,5.20
2019-02-22T14:25:11.913Z,5.08
2019-02-22T14:27:40.332Z,7.30
2019-02-22T14:30:12.154Z,8.53
2019-02-22T14:32:40.476Z,11.50
2019-02-22T14:35:09.492Z,6.60
2019-02-22T14:37:37.951Z,4.80
2019-02-22T14:40:09.230Z,8.43
2019-02-22T14:42:37.540Z,9.73
2019-02-22T14:45:08.979Z,5.90
2019-02-22T14:47:37.292Z,8.13
2019-02-22T14:50:10.212Z,9.40
2019-02-22T14:52:38.558Z,6.97
2019-02-22T14:55:08.686Z,8.80
2019-02-22T14:57:37.074Z,7.40
2019-02-22T15:00:11.630Z,10.30
2019-02-22T15:02:41.235Z,6.00
2019-02-22T15:05:11.271Z,7.87
2019-02-22T15:07:39.625Z,8.47
2019-02-22T15:10:09.239Z,7.95
2019-02-22T15:12:37.545Z,7.60
2019-02-22T15:15:10.453Z,9.37
2019-02-22T15:17:41.044Z,7.78
2019-02-22T15:20:10.141Z,7.33
2019-02-22T15:22:38.488Z,7.60
2019-02-22T15:25:10.639Z,12.30
2019-02-22T15:27:38.959Z,7.23
2019-02-22T15:30:11.194Z,7.20
2019-02-22T15:32:39.608Z,6.57
2019-02-22T15:35:11.329Z,7.00
2019-02-22T15:37:39.682Z,9.77
2019-02-22T15:40:10.914Z,6.37
2019-02-22T15:42:40.610Z,7.33
2019-02-22T15:45:15.647Z,8.30
2019-02-22T15:47:44.042Z,11.60
2019-02-22T15:50:14.086Z,8.43
2019-02-22T15:52:42.527Z,10.83
2019-02-22T15:55:14.214Z,12.47
2019-02-22T15:57:42.140Z,10.73
2019-02-22T16:00:13.259Z,9.33
2019-02-22T16:02:41.618Z,10.48
2019-02-22T16:05:12.966Z,8.87
2019-02-22T16:07:44.657Z,8.60
2019-02-22T16:10:12.893Z,8.87
2019-02-22T16:12:41.296Z,6.83
2019-02-22T16:15:10.599Z,10.23
2019-02-22T16:17:39.011Z,11.90
2019-02-22T16:20:08.409Z,8.70
2019-02-22T16:22:36.780Z,8.50
2019-02-22T16:25:06.281Z,9.80
2019-02-22T16:27:34.634Z,7.43
2019-02-22T16:30:03.467Z,10.27
2019-02-22T16:32:31.813Z,11.70
2019-02-22T16:35:00.244Z,10.97
2019-02-22T16:37:28.685Z,8.75
2019-02-22T16:39:57.125Z,10.18
2019-02-22T16:42:25.482Z,10.63
2019-02-22T16:44:53.805Z,11.47
2019-02-22T16:47:22.164Z,10.35
2019-02-22T16:49:50.500Z,12.10
2019-02-22T16:52:18.865Z,10.97
2019-02-22T16:54:47.279Z,15.57
2019-02-22T16:57:15.617Z,10.85
2019-02-22T16:59:43.984Z,12.10
2019-02-22T17:02:12.372Z,11.83
2019-02-22T17:04:40.723Z,10.38
2019-02-22T17:07:09.420Z,11.90
2019-02-22T17:09:37.811Z,15.30
2019-02-22T17:12:07.013Z,12.15
2019-02-22T17:14:35.532Z,13.73
2019-02-22T17:17:03.914Z,13.53
2019-02-22T17:19:32.310Z,15.60
2019-02-22T17:22:00.706Z,15.57
2019-02-22T17:24:29.066Z,13.53
2019-02-22T17:26:57.421Z,15.43
2019-02-22T17:29:25.802Z,14.83
2019-02-22T17:31:54.183Z,15.83
2019-02-22T17:34:22.493Z,15.57
2019-02-22T17:36:50.834Z,20.63
2019-02-22T17:39:19.170Z,14.57
2019-02-22T17:41:48.258Z,13.72
2019-02-22T17:44:16.575Z,13.27
2019-02-22T17:46:44.896Z,14.13
2019-02-22T17:49:13.251Z,15.50
2019-02-22T17:51:41.587Z,15.37
2019-02-22T17:54:10.101Z,16.87
2019-02-22T17:56:38.434Z,18.33
2019-02-22T17:59:06.801Z,13.27
2019-02-22T18:01:35.261Z,15.25
2019-02-22T18:04:03.609Z,13.40
2019-02-22T18:06:31.960Z,17.52
2019-02-22T18:09:00.405Z,17.13
2019-02-22T18:11:28.747Z,15.90
2019-02-22T18:13:57.086Z,15.17
2019-02-22T18:16:25.439Z,15.10
2019-02-22T18:18:53.776Z,14.23
2019-02-22T18:21:22.167Z,14.03
2019-02-22T18:23:51.468Z,18.03
2019-02-22T18:26:19.824Z,14.50
2019-02-22T18:28:48.180Z,15.85
2019-02-22T18:31:16.567Z,12.95
2019-02-22T18:33:45.528Z,15.53
2019-02-22T18:36:13.878Z,16.93
2019-02-22T18:38:42.270Z,15.63
2019-02-22T18:41:11.234Z,14.57
2019-02-22T18:43:39.560Z,12.87
2019-02-22T18:46:07.902Z,14.00
2019-02-22T18:48:36.237Z,18.17
2019-02-22T18:51:04.610Z,15.98
2019-02-22T18:53:32.995Z,15.30
2019-02-22T18:56:01.413Z,19.30
2019-02-22T18:58:29.750Z,12.97
2019-02-22T19:00:58.102Z,18.10
2019-02-22T19:03:26.445Z,18.85
2019-02-22T19:05:54.782Z,13.77
2019-02-22T19:08:32.161Z,19.45
2019-02-22T19:10:53.521Z,15.30
2019-02-22T19:13:21.909Z,15.23
2019-02-22T19:15:50.249Z,15.72
2019-02-22T19:18:18.613Z,18.90
2019-02-22T19:20:47.046Z,18.30
2019-02-22T19:23:15.511Z,12.97
2019-02-22T19:25:43.846Z,16.97
2019-02-22T19:28:12.413Z,18.57
2019-02-22T19:30:40.740Z,21.30
2019-02-22T19:33:09.101Z,20.03
2019-02-22T19:35:37.439Z,18.83
2019-02-22T19:38:05.867Z,16.70
2019-02-22T19:40:34.178Z,16.10
2019-02-22T19:43:02.536Z,16.53
2019-02-22T19:45:30.912Z,13.40
2019-02-22T19:47:59.279Z,11.10
2019-02-22T19:50:27.611Z,13.43
2019-02-22T19:52:55.989Z,14.40
2019-02-22T19:55:24.373Z,17.43
2019-02-22T19:57:52.737Z,15.63
2019-02-22T20:00:21.119Z,13.90
2019-02-22T20:02:49.469Z,18.03
2019-02-22T20:05:17.843Z,15.23
2019-02-22T20:07:46.898Z,14.80
2019-02-22T20:10:18.216Z,18.47
2019-02-22T20:12:46.955Z,13.03
2019-02-22T20:15:16.627Z,15.20
2019-02-22T20:17:53.232Z,13.00
2019-02-22T20:20:17.481Z,12.50
2019-02-22T20:22:45.854Z,13.93
2019-02-22T20:25:15.079Z,15.65
2019-02-22T20:27:43.478Z,13.63
2019-02-22T20:30:14.767Z,19.63
2019-02-22T20:32:43.630Z,16.00
2019-02-22T20:35:14.806Z,15.50
2019-02-22T20:37:51.892Z,12.40
2019-02-22T20:40:14.664Z,14.07
2019-02-22T20:42:43.053Z,15.70
2019-02-22T20:45:12.962Z,16.52
2019-02-22T20:47:41.320Z,17.80
2019-02-22T20:50:11.737Z,12.20
2019-02-22T20:52:40.113Z,14.23
2019-02-22T20:55:10.027Z,15.57
2019-02-22T20:57:38.646Z,15.40
2019-02-22T21:00:12.053Z,13.57
2019-02-22T21:02:40.385Z,12.70
2019-02-22T21:05:09.877Z,14.43
2019-02-22T21:07:38.263Z,14.30
2019-02-22T21:10:10.400Z,14.97
2019-02-22T21:12:38.745Z,12.00
2019-02-22T21:15:08.728Z,12.90
2019-02-22T21:17:37.084Z,9.57
2019-02-22T21:20:07.981Z,10.93
2019-02-22T21:22:36.332Z,9.50
2019-02-22T21:25:06.990Z,12.20
2019-02-22T21:27:35.343Z,15.23
2019-02-22T21:30:05.189Z,10.50
2019-02-22T21:32:33.525Z,11.93
2019-02-22T21:35:01.916Z,9.47
2019-02-22T21:37:30.298Z,10.50
2019-02-22T21:39:58.630Z,9.28
2019-02-22T21:42:26.966Z,8.30
2019-02-22T21:44:55.310Z,7.20
2019-02-22T21:47:23.656Z,7.70
2019-02-22T21:49:51.980Z,9.93
2019-02-22T21:52:20.327Z,6.00
2019-02-22T21:54:48.638Z,6.20
2019-02-22T21:57:17.010Z,8.13
2019-02-22T21:59:45.337Z,10.18
2019-02-22T22:02:14.402Z,8.95
2019-02-22T22:04:42.745Z,8.00
2019-02-22T22:07:11.499Z,9.77
2019-02-22T22:09:39.937Z,7.20
2019-02-22T22:12:08.416Z,9.03
2019-02-22T22:14:36.900Z,8.43
2019-02-22T22:17:05.318Z,8.77
2019-02-22T22:19:33.669Z,7.80
2019-02-22T22:22:02.022Z,10.23
2019-02-22T22:24:30.357Z,12.18
2019-02-22T22:26:58.689Z,8.05
2019-02-22T22:29:27.030Z,8.70
2019-02-22T22:31:55.359Z,11.50
2019-02-22T22:34:23.711Z,9.60
2019-02-22T22:36:52.032Z,9.30
2019-02-22T22:39:20.386Z,10.03
2019-02-22T22:41:49.060Z,11.22
2019-02-22T22:44:17.391Z,9.87
2019-02-22T22:46:45.741Z,9.10
2019-02-22T22:49:14.110Z,9.17
2019-02-22T22:51:42.495Z,7.70
2019-02-22T22:54:11.851Z,9.93
2019-02-22T22:56:40.206Z,12.03
2019-02-22T22:59:08.697Z,9.77
2019-02-22T23:01:37.047Z,7.93
2019-02-22T23:04:31.337Z,7.20
2019-02-22T23:06:59.731Z,6.42
2019-02-22T23:09:28.153Z,10.00
2019-02-22T23:11:56.455Z,8.73
2019-02-22T23:14:24.804Z,8.53
2019-02-22T23:16:53.117Z,9.13
2019-02-22T23:19:21.458Z,12.57
2019-02-22T23:21:49.823Z,11.73
2019-02-22T23:24:18.229Z,8.50
2019-02-22T23:26:46.560Z,11.60
2019-02-22T23:29:14.938Z,9.53
2019-02-22T23:31:43.337Z,10.97
2019-02-22T23:34:12.206Z,10.67
2019-02-22T23:36:40.550Z,11.63
2019-02-22T23:39:09.388Z,11.83
2019-02-22T23:41:37.792Z,8.20
2019-02-22T23:44:06.120Z,10.30
2019-02-22T23:46:34.508Z,8.57
2019-02-22T23:49:12.839Z,9.57
2019-02-22T23:51:33.241Z,11.23
2019-02-22T23:54:01.598Z,9.10
2019-02-22T23:56:29.911Z,10.20
2019-02-22T23:58:58.228Z,8.70
